sensor_id;sensor_type;location;lat;lon;timestamp;pressure;altitude;pressure_sealevel;temperature;humidity
67740;BME280;54536;50.090;14.420;2022-11-03T00:02:05;100246.59;;;11.72;61.61
67740;BME280;54536;50.090;14.420;2022-11-03T00:04:31;100245.78;;;11.49;60.14
67740;BME280;54536;50.090;14.420;2022-11-03T00:06:59;100240.97;;;11.54;61.20
67740;BME280;54536;50.090;14.420;2022-11-03T00:09:26;100239.56;;;11.61;60.84
67740;BME280;54536;50.090;14.420;2022-11-03T00:11:53;100237.06;;;11.48;61.04
67740;BME280;54536;50.090;14.420;2022-11-03T00:14:20;100228.88;;;11.63;60.45
67740;BME280;54536;50.090;14.420;2022-11-03T00:16:47;100233.56;;;11.59;61.28
67740;BME280;54536;50.090;14.420;2022-11-03T00:19:14;100233.56;;;11.59;60.62
67740;BME280;54536;50.090;14.420;2022-11-03T00:21:42;100220.97;;;11.63;60.95
67740;BME280;54536;50.090;14.420;2022-11-03T00:24:10;100227.81;;;11.54;60.10
67740;BME280;54536;50.090;14.420;2022-11-03T00:26:36;100217.66;;;11.61;59.88
67740;BME280;54536;50.090;14.420;2022-11-03T00:29:13;100220.88;;;11.53;59.67
67740;BME280;54536;50.090;14.420;2022-11-03T00:31:45;100214.53;;;11.56;61.12
67740;BME280;54536;50.090;14.420;2022-11-03T00:34:17;100220.19;;;11.40;59.98
67740;BME280;54536;50.090;14.420;2022-11-03T00:36:43;100215.50;;;11.55;60.88
67740;BME280;54536;50.090;14.420;2022-11-03T00:39:11;100214.91;;;11.51;60.30
67740;BME280;54536;50.090;14.420;2022-11-03T00:41:38;100211.31;;;11.52;59.80
67740;BME280;54536;50.090;14.420;2022-11-03T00:44:16;100214.56;;;11.33;60.57
67740;BME280;54536;50.090;14.420;2022-11-03T00:46:48;100216.81;;;11.38;60.53
67740;BME280;54536;50.090;14.420;2022-11-03T00:49:14;100218.75;;;11.36;60.02
67740;BME280;54536;50.090;14.420;2022-11-03T00:51:40;100213.59;;;11.34;60.51
67740;BME280;54536;50.090;14.420;2022-11-03T00:54:07;100205.81;;;11.33;61.01
67740;BME280;54536;50.090;14.420;2022-11-03T00:56:36;100197.69;;;11.36;60.82
67740;BME280;54536;50.090;14.420;2022-11-03T00:59:10;100199.94;;;11.40;60.85
67740;BME280;54536;50.090;14.420;2022-11-03T01:01:39;100200.91;;;11.39;59.89
67740;BME280;54536;50.090;14.420;2022-11-03T01:04:08;100190.97;;;11.20;60.61
67740;BME280;54536;50.090;14.420;2022-11-03T01:06:55;100189.81;;;11.02;60.87
67740;BME280;54536;50.090;14.420;2022-11-03T01:09:33;100184.56;;;11.02;60.69
67740;BME280;54536;50.090;14.420;2022-11-03T01:14:48;100188.84;;;10.81;61.79
67740;BME280;54536;50.090;14.420;2022-11-03T01:17:23;100177.00;;;10.97;60.57
67740;BME280;54536;50.090;14.420;2022-11-03T01:19:50;100175.56;;;11.16;61.31
67740;BME280;54536;50.090;14.420;2022-11-03T01:22:17;100169.34;;;11.28;62.16
67740;BME280;54536;50.090;14.420;2022-11-03T01:24:47;100175.31;;;11.30;61.21
67740;BME280;54536;50.090;14.420;2022-11-03T01:27:18;100162.97;;;11.31;60.08
67740;BME280;54536;50.090;14.420;2022-11-03T01:29:45;100156.16;;;11.39;60.00
67740;BME280;54536;50.090;14.420;2022-11-03T01:32:12;100162.63;;;11.24;59.90
67740;BME280;54536;50.090;14.420;2022-11-03T01:34:38;100158.44;;;11.10;60.13
67740;BME280;54536;50.090;14.420;2022-11-03T01:37:10;100160.38;;;10.97;60.66
67740;BME280;54536;50.090;14.420;2022-11-03T01:39:37;100160.97;;;10.89;61.08
67740;BME280;54536;50.090;14.420;2022-11-03T01:42:03;100157.28;;;10.69;61.55
67740;BME280;54536;50.090;14.420;2022-11-03T01:44:32;100156.06;;;10.85;62.54
67740;BME280;54536;50.090;14.420;2022-11-03T01:47:23;100154.25;;;10.85;61.62
67740;BME280;54536;50.090;14.420;2022-11-03T01:50:12;100152.22;;;10.77;60.82
67740;BME280;54536;50.090;14.420;2022-11-03T01:52:55;100156.41;;;10.69;61.82
67740;BME280;54536;50.090;14.420;2022-11-03T01:55:28;100141.00;;;10.87;62.05
67740;BME280;54536;50.090;14.420;2022-11-03T02:00:45;100128.44;;;10.90;60.58
67740;BME280;54536;50.090;14.420;2022-11-03T02:03:20;100125.09;;;10.99;60.63
67740;BME280;54536;50.090;14.420;2022-11-03T02:05:49;100132.50;;;10.94;60.42
67740;BME280;54536;50.090;14.420;2022-11-03T02:08:24;100124.38;;;10.86;60.92
67740;BME280;54536;50.090;14.420;2022-11-03T02:10:52;100127.13;;;10.85;60.91
67740;BME280;54536;50.090;14.420;2022-11-03T02:13:22;100124.72;;;10.59;61.16
67740;BME280;54536;50.090;14.420;2022-11-03T02:15:52;100108.47;;;10.54;62.14
67740;BME280;54536;50.090;14.420;2022-11-03T02:18:25;100112.06;;;10.53;61.95
67740;BME280;54536;50.090;14.420;2022-11-03T02:21:07;100109.19;;;10.67;62.55
67740;BME280;54536;50.090;14.420;2022-11-03T02:23:52;100107.03;;;10.84;61.24
67740;BME280;54536;50.090;14.420;2022-11-03T02:26:21;100101.31;;;10.90;61.33
67740;BME280;54536;50.090;14.420;2022-11-03T02:28:48;100099.50;;;10.68;61.21
67740;BME280;54536;50.090;14.420;2022-11-03T02:31:48;100095.31;;;10.54;61.41
67740;BME280;54536;50.090;14.420;2022-11-03T02:34:26;100088.44;;;10.18;61.85
67740;BME280;54536;50.090;14.420;2022-11-03T02:37:08;100083.66;;;10.23;61.97
67740;BME280;54536;50.090;14.420;2022-11-03T02:40:17;100088.03;;;10.46;62.79
67740;BME280;54536;50.090;14.420;2022-11-03T02:42:49;100081.31;;;10.42;62.26
67740;BME280;54536;50.090;14.420;2022-11-03T02:45:20;100079.19;;;10.47;63.15
67740;BME280;54536;50.090;14.420;2022-11-03T02:47:50;100077.63;;;10.45;61.98
67740;BME280;54536;50.090;14.420;2022-11-03T02:50:19;100072.69;;;10.29;61.90
67740;BME280;54536;50.090;14.420;2022-11-03T02:52:48;100082.16;;;10.31;62.31
67740;BME280;54536;50.090;14.420;2022-11-03T03:00:20;100076.59;;;10.12;62.14
67740;BME280;54536;50.090;14.420;2022-11-03T03:02:49;100076.94;;;10.07;63.00
67740;BME280;54536;50.090;14.420;2022-11-03T03:05:26;100065.34;;;9.99;62.86
67740;BME280;54536;50.090;14.420;2022-11-03T03:08:00;100062.25;;;10.05;62.66
67740;BME280;54536;50.090;14.420;2022-11-03T03:10:40;100048.59;;;9.89;62.69
67740;BME280;54536;50.090;14.420;2022-11-03T03:13:12;100058.28;;;9.99;62.83
67740;BME280;54536;50.090;14.420;2022-11-03T03:18:45;100062.84;;;10.20;61.70
67740;BME280;54536;50.090;14.420;2022-11-03T03:21:36;100055.38;;;10.26;61.77
67740;BME280;54536;50.090;14.420;2022-11-03T03:24:26;100046.59;;;10.03;61.50
67740;BME280;54536;50.090;14.420;2022-11-03T03:26:58;100046.66;;;10.26;62.84
67740;BME280;54536;50.090;14.420;2022-11-03T03:29:47;100052.34;;;10.20;61.27
67740;BME280;54536;50.090;14.420;2022-11-03T03:32:21;100051.94;;;9.91;61.47
67740;BME280;54536;50.090;14.420;2022-11-03T03:35:07;100061.50;;;10.03;62.32
67740;BME280;54536;50.090;14.420;2022-11-03T03:37:40;100061.97;;;9.97;61.65
67740;BME280;54536;50.090;14.420;2022-11-03T03:40:11;100055.56;;;10.01;61.92
67740;BME280;54536;50.090;14.420;2022-11-03T03:42:42;100056.75;;;10.08;62.79
67740;BME280;54536;50.090;14.420;2022-11-03T03:45:11;100055.94;;;10.19;61.57
67740;BME280;54536;50.090;14.420;2022-11-03T03:47:39;100053.78;;;10.01;61.72
67740;BME280;54536;50.090;14.420;2022-11-03T03:50:05;100060.78;;;9.90;62.37
67740;BME280;54536;50.090;14.420;2022-11-03T03:52:34;100065.41;;;9.51;62.64
67740;BME280;54536;50.090;14.420;2022-11-03T03:55:16;100056.59;;;9.52;62.24
67740;BME280;54536;50.090;14.420;2022-11-03T03:57:43;100053.47;;;9.47;63.14
67740;BME280;54536;50.090;14.420;2022-11-03T04:00:14;100051.69;;;9.47;64.28
67740;BME280;54536;50.090;14.420;2022-11-03T04:02:41;100056.97;;;9.10;63.84
67740;BME280;54536;50.090;14.420;2022-11-03T04:05:08;100064.56;;;9.02;64.83
67740;BME280;54536;50.090;14.420;2022-11-03T04:07:34;100060.69;;;9.32;63.50
67740;BME280;54536;50.090;14.420;2022-11-03T04:10:20;100057.56;;;9.27;64.03
67740;BME280;54536;50.090;14.420;2022-11-03T04:12:48;100052.31;;;9.27;63.87
67740;BME280;54536;50.090;14.420;2022-11-03T04:15:34;100053.53;;;9.10;64.51
67740;BME280;54536;50.090;14.420;2022-11-03T04:18:21;100058.38;;;9.27;64.06
67740;BME280;54536;50.090;14.420;2022-11-03T04:21:11;100057.34;;;9.30;64.97
67740;BME280;54536;50.090;14.420;2022-11-03T04:23:58;100060.78;;;9.30;65.05
67740;BME280;54536;50.090;14.420;2022-11-03T04:26:26;100048.63;;;9.29;65.59
67740;BME280;54536;50.090;14.420;2022-11-03T04:28:53;100043.91;;;8.98;65.24
67740;BME280;54536;50.090;14.420;2022-11-03T04:31:20;100039.22;;;8.90;65.88
67740;BME280;54536;50.090;14.420;2022-11-03T04:33:48;100033.03;;;9.15;65.50
67740;BME280;54536;50.090;14.420;2022-11-03T04:36:32;100035.47;;;9.05;66.66
67740;BME280;54536;50.090;14.420;2022-11-03T04:38:58;100036.09;;;9.09;66.66
67740;BME280;54536;50.090;14.420;2022-11-03T04:41:28;100046.59;;;9.09;66.92
67740;BME280;54536;50.090;14.420;2022-11-03T04:43:56;100040.25;;;9.24;67.01
67740;BME280;54536;50.090;14.420;2022-11-03T04:46:25;100041.81;;;9.03;65.52
67740;BME280;54536;50.090;14.420;2022-11-03T04:48:53;100035.69;;;9.02;66.67
67740;BME280;54536;50.090;14.420;2022-11-03T04:51:30;100033.97;;;9.14;65.73
67740;BME280;54536;50.090;14.420;2022-11-03T04:54:02;100030.97;;;9.07;65.97
67740;BME280;54536;50.090;14.420;2022-11-03T04:56:29;100022.28;;;9.07;66.52
67740;BME280;54536;50.090;14.420;2022-11-03T04:58:57;100025.19;;;9.02;65.66
67740;BME280;54536;50.090;14.420;2022-11-03T05:01:24;100022.28;;;9.07;65.58
67740;BME280;54536;50.090;14.420;2022-11-03T05:03:53;100023.63;;;9.12;66.16
67740;BME280;54536;50.090;14.420;2022-11-03T05:06:26;100018.75;;;9.19;65.51
67740;BME280;54536;50.090;14.420;2022-11-03T05:09:15;100016.00;;;9.21;66.28
67740;BME280;54536;50.090;14.420;2022-11-03T05:11:44;100015.56;;;9.27;69.01
67740;BME280;54536;50.090;14.420;2022-11-03T05:14:29;100009.53;;;9.37;66.25
67740;BME280;54536;50.090;14.420;2022-11-03T05:17:01;100001.63;;;9.26;65.48
67740;BME280;54536;50.090;14.420;2022-11-03T05:19:37;100003.28;;;9.27;66.09
67740;BME280;54536;50.090;14.420;2022-11-03T05:22:17;99998.38;;;8.99;66.09
67740;BME280;54536;50.090;14.420;2022-11-03T05:24:45;100005.22;;;8.88;66.44
67740;BME280;54536;50.090;14.420;2022-11-03T05:27:18;99999.13;;;8.64;66.26
67740;BME280;54536;50.090;14.420;2022-11-03T05:29:47;99996.81;;;8.59;66.19
67740;BME280;54536;50.090;14.420;2022-11-03T05:32:23;99994.69;;;8.77;66.14
67740;BME280;54536;50.090;14.420;2022-11-03T05:34:57;99997.56;;;8.85;65.68
67740;BME280;54536;50.090;14.420;2022-11-03T05:37:34;100001.28;;;9.07;65.05
67740;BME280;54536;50.090;14.420;2022-11-03T05:40:22;99993.44;;;8.70;65.29
67740;BME280;54536;50.090;14.420;2022-11-03T05:42:55;99985.19;;;8.63;65.76
67740;BME280;54536;50.090;14.420;2022-11-03T05:47:57;99991.00;;;8.80;66.98
67740;BME280;54536;50.090;14.420;2022-11-03T05:50:31;99981.78;;;8.98;66.00
67740;BME280;54536;50.090;14.420;2022-11-03T05:53:11;99978.44;;;9.20;65.88
67740;BME280;54536;50.090;14.420;2022-11-03T05:55:43;99972.28;;;9.08;65.56
67740;BME280;54536;50.090;14.420;2022-11-03T05:58:39;99968.34;;;9.27;66.50
67740;BME280;54536;50.090;14.420;2022-11-03T06:01:32;99973.03;;;9.10;64.60
67740;BME280;54536;50.090;14.420;2022-11-03T06:04:28;99968.53;;;9.12;64.62
67740;BME280;54536;50.090;14.420;2022-11-03T06:09:26;99974.00;;;9.09;64.66
67740;BME280;54536;50.090;14.420;2022-11-03T06:11:59;99970.00;;;9.28;63.66
67740;BME280;54536;50.090;14.420;2022-11-03T06:14:29;99976.66;;;9.21;64.42
67740;BME280;54536;50.090;14.420;2022-11-03T06:17:10;99969.19;;;9.03;64.53
67740;BME280;54536;50.090;14.420;2022-11-03T06:19:45;99970.81;;;8.93;64.95
67740;BME280;54536;50.090;14.420;2022-11-03T06:24:56;99972.53;;;9.05;65.58
67740;BME280;54536;50.090;14.420;2022-11-03T06:27:28;99973.53;;;8.67;66.23
67740;BME280;54536;50.090;14.420;2022-11-03T06:30:00;99975.09;;;8.70;65.30
67740;BME280;54536;50.090;14.420;2022-11-03T06:32:28;99981.03;;;8.48;66.14
67740;BME280;54536;50.090;14.420;2022-11-03T06:35:00;99984.91;;;8.79;66.51
67740;BME280;54536;50.090;14.420;2022-11-03T06:37:31;99976.66;;;8.97;65.61
67740;BME280;54536;50.090;14.420;2022-11-03T06:40:01;99978.16;;;8.88;65.12
67740;BME280;54536;50.090;14.420;2022-11-03T06:42:31;99981.69;;;9.00;66.11
67740;BME280;54536;50.090;14.420;2022-11-03T06:45:00;99978.88;;;9.14;65.46
67740;BME280;54536;50.090;14.420;2022-11-03T06:47:28;99975.69;;;9.22;64.88
67740;BME280;54536;50.090;14.420;2022-11-03T06:49:57;99971.25;;;9.11;65.23
67740;BME280;54536;50.090;14.420;2022-11-03T06:57:32;99974.66;;;9.00;64.49
67740;BME280;54536;50.090;14.420;2022-11-03T07:00:00;99980.94;;;9.22;64.76
67740;BME280;54536;50.090;14.420;2022-11-03T07:02:56;99976.97;;;9.40;64.52
67740;BME280;54536;50.090;14.420;2022-11-03T07:05:26;99977.47;;;9.45;63.74
67740;BME280;54536;50.090;14.420;2022-11-03T07:07:57;99976.22;;;9.38;64.02
67740;BME280;54536;50.090;14.420;2022-11-03T07:10:27;99976.16;;;9.51;64.19
67740;BME280;54536;50.090;14.420;2022-11-03T07:12:55;99971.97;;;9.13;64.26
67740;BME280;54536;50.090;14.420;2022-11-03T07:15:31;99973.28;;;9.19;63.93
67740;BME280;54536;50.090;14.420;2022-11-03T07:18:00;99965.47;;;9.30;64.03
67740;BME280;54536;50.090;14.420;2022-11-03T07:20:27;99961.78;;;9.32;63.85
67740;BME280;54536;50.090;14.420;2022-11-03T07:22:56;99959.88;;;9.34;63.54
67740;BME280;54536;50.090;14.420;2022-11-03T07:25:26;99953.66;;;9.24;63.67
67740;BME280;54536;50.090;14.420;2022-11-03T07:28:01;99946.97;;;9.31;64.25
67740;BME280;54536;50.090;14.420;2022-11-03T07:30:32;99945.91;;;9.34;63.26
67740;BME280;54536;50.090;14.420;2022-11-03T07:33:19;99943.94;;;9.49;62.87
67740;BME280;54536;50.090;14.420;2022-11-03T07:35:50;99934.38;;;9.48;62.41
67740;BME280;54536;50.090;14.420;2022-11-03T07:38:19;99940.00;;;9.43;63.30
67740;BME280;54536;50.090;14.420;2022-11-03T07:40:46;99932.34;;;9.40;62.74
67740;BME280;54536;50.090;14.420;2022-11-03T07:43:28;99918.97;;;9.32;63.85
67740;BME280;54536;50.090;14.420;2022-11-03T07:46:03;99919.44;;;9.26;63.60
67740;BME280;54536;50.090;14.420;2022-11-03T07:48:46;99915.25;;;9.34;62.86
67740;BME280;54536;50.090;14.420;2022-11-03T07:51:32;99905.44;;;9.25;62.87
67740;BME280;54536;50.090;14.420;2022-11-03T07:54:19;99911.19;;;9.19;63.05
67740;BME280;54536;50.090;14.420;2022-11-03T07:56:53;99901.31;;;8.99;64.21
67740;BME280;54536;50.090;14.420;2022-11-03T07:59:30;99901.53;;;9.20;63.34
67740;BME280;54536;50.090;14.420;2022-11-03T08:01:58;99905.66;;;9.11;63.54
67740;BME280;54536;50.090;14.420;2022-11-03T08:04:33;99888.94;;;9.12;63.97
67740;BME280;54536;50.090;14.420;2022-11-03T08:07:00;99893.53;;;9.21;62.88
67740;BME280;54536;50.090;14.420;2022-11-03T08:09:26;99889.69;;;9.25;63.13
67740;BME280;54536;50.090;14.420;2022-11-03T08:11:52;99885.81;;;8.96;64.13
67740;BME280;54536;50.090;14.420;2022-11-03T08:14:24;99881.66;;;9.04;63.66
67740;BME280;54536;50.090;14.420;2022-11-03T08:16:51;99871.09;;;9.17;63.87
67740;BME280;54536;50.090;14.420;2022-11-03T08:19:18;99873.13;;;9.13;63.29
67740;BME280;54536;50.090;14.420;2022-11-03T08:21:44;99870.81;;;9.09;63.82
67740;BME280;54536;50.090;14.420;2022-11-03T08:24:10;99864.78;;;9.31;62.64
67740;BME280;54536;50.090;14.420;2022-11-03T08:26:37;99859.22;;;9.35;62.07
67740;BME280;54536;50.090;14.420;2022-11-03T08:29:03;99853.47;;;9.30;63.17
67740;BME280;54536;50.090;14.420;2022-11-03T08:31:29;99843.59;;;9.56;62.56
67740;BME280;54536;50.090;14.420;2022-11-03T08:33:56;99843.47;;;9.80;61.82
67740;BME280;54536;50.090;14.420;2022-11-03T08:36:22;99834.97;;;9.99;60.97
67740;BME280;54536;50.090;14.420;2022-11-03T08:38:48;99834.50;;;10.05;61.47
67740;BME280;54536;50.090;14.420;2022-11-03T08:41:14;99832.22;;;10.12;61.26
67740;BME280;54536;50.090;14.420;2022-11-03T08:43:40;99828.50;;;10.15;60.83
67740;BME280;54536;50.090;14.420;2022-11-03T08:46:06;99818.00;;;10.15;61.61
67740;BME280;54536;50.090;14.420;2022-11-03T08:48:34;99822.03;;;10.19;61.49
67740;BME280;54536;50.090;14.420;2022-11-03T08:51:00;99818.56;;;10.29;60.67
67740;BME280;54536;50.090;14.420;2022-11-03T08:53:26;99809.16;;;10.27;61.55
67740;BME280;54536;50.090;14.420;2022-11-03T08:55:53;99800.44;;;10.59;61.29
67740;BME280;54536;50.090;14.420;2022-11-03T08:58:19;99801.19;;;10.49;61.09
67740;BME280;54536;50.090;14.420;2022-11-03T09:00:46;99793.97;;;10.63;60.00
67740;BME280;54536;50.090;14.420;2022-11-03T09:06:55;99785.69;;;10.67;59.92
67740;BME280;54536;50.090;14.420;2022-11-03T09:09:21;99775.00;;;10.80;60.62
67740;BME280;54536;50.090;14.420;2022-11-03T09:11:47;99766.13;;;11.02;60.36
67740;BME280;54536;50.090;14.420;2022-11-03T09:14:14;99761.28;;;11.07;59.32
67740;BME280;54536;50.090;14.420;2022-11-03T09:16:41;99762.44;;;11.14;59.03
67740;BME280;54536;50.090;14.420;2022-11-03T09:19:06;99758.41;;;11.10;59.07
67740;BME280;54536;50.090;14.420;2022-11-03T09:21:34;99752.63;;;11.16;59.47
67740;BME280;54536;50.090;14.420;2022-11-03T09:24:01;99749.84;;;11.48;59.77
67740;BME280;54536;50.090;14.420;2022-11-03T09:26:27;99748.34;;;11.56;59.26
67740;BME280;54536;50.090;14.420;2022-11-03T09:28:53;99745.19;;;11.62;58.74
67740;BME280;54536;50.090;14.420;2022-11-03T09:31:19;99744.78;;;11.76;59.34
67740;BME280;54536;50.090;14.420;2022-11-03T09:33:47;99734.13;;;11.78;57.64
67740;BME280;54536;50.090;14.420;2022-11-03T09:36:12;99736.28;;;11.93;57.96
67740;BME280;54536;50.090;14.420;2022-11-03T09:38:45;99724.88;;;11.93;57.62
67740;BME280;54536;50.090;14.420;2022-11-03T09:41:15;99725.59;;;11.95;57.80
67740;BME280;54536;50.090;14.420;2022-11-03T09:43:46;99715.19;;;12.03;58.41
67740;BME280;54536;50.090;14.420;2022-11-03T09:46:19;99711.88;;;12.11;58.22
67740;BME280;54536;50.090;14.420;2022-11-03T09:48:46;99707.97;;;12.15;57.62
67740;BME280;54536;50.090;14.420;2022-11-03T09:51:18;99698.13;;;12.17;57.67
67740;BME280;54536;50.090;14.420;2022-11-03T09:53:46;99697.00;;;12.29;57.83
67740;BME280;54536;50.090;14.420;2022-11-03T09:56:16;99696.59;;;12.34;57.65
67740;BME280;54536;50.090;14.420;2022-11-03T09:58:43;99699.63;;;12.49;56.96
67740;BME280;54536;50.090;14.420;2022-11-03T10:01:10;99690.06;;;12.48;57.38
67740;BME280;54536;50.090;14.420;2022-11-03T10:03:37;99690.06;;;12.38;57.44
67740;BME280;54536;50.090;14.420;2022-11-03T10:06:04;99679.78;;;12.54;56.35
67740;BME280;54536;50.090;14.420;2022-11-03T10:08:39;99678.41;;;12.40;56.72
67740;BME280;54536;50.090;14.420;2022-11-03T10:11:07;99664.50;;;12.48;57.21
67740;BME280;54536;50.090;14.420;2022-11-03T10:13:51;99652.81;;;12.60;56.50
67740;BME280;54536;50.090;14.420;2022-11-03T10:16:22;99640.19;;;12.64;57.01
67740;BME280;54536;50.090;14.420;2022-11-03T10:18:51;99632.13;;;12.65;55.77
67740;BME280;54536;50.090;14.420;2022-11-03T10:21:22;99617.38;;;12.73;55.95
67740;BME280;54536;50.090;14.420;2022-11-03T10:27:32;99609.81;;;12.87;55.59
67740;BME280;54536;50.090;14.420;2022-11-03T10:30:17;99604.97;;;12.83;55.60
67740;BME280;54536;50.090;14.420;2022-11-03T10:32:42;99592.91;;;12.80;56.09
67740;BME280;54536;50.090;14.420;2022-11-03T10:35:31;99591.75;;;12.93;54.83
67740;BME280;54536;50.090;14.420;2022-11-03T10:38:33;99592.56;;;12.93;55.43
67740;BME280;54536;50.090;14.420;2022-11-03T10:43:41;99576.56;;;13.22;55.00
67740;BME280;54536;50.090;14.420;2022-11-03T10:46:19;99573.19;;;13.30;54.47
67740;BME280;54536;50.090;14.420;2022-11-03T10:51:34;99553.72;;;13.85;54.17
67740;BME280;54536;50.090;14.420;2022-11-03T10:54:05;99551.78;;;13.87;53.79
67740;BME280;54536;50.090;14.420;2022-11-03T10:56:35;99537.44;;;13.71;53.88
67740;BME280;54536;50.090;14.420;2022-11-03T10:59:01;99527.03;;;13.96;53.53
67740;BME280;54536;50.090;14.420;2022-11-03T11:01:34;99529.28;;;14.09;53.31
67740;BME280;54536;50.090;14.420;2022-11-03T11:04:00;99524.06;;;14.25;52.70
67740;BME280;54536;50.090;14.420;2022-11-03T11:06:29;99519.38;;;14.45;53.86
67740;BME280;54536;50.090;14.420;2022-11-03T11:09:11;99513.75;;;14.66;52.41
67740;BME280;54536;50.090;14.420;2022-11-03T11:11:57;99505.00;;;14.73;51.77
67740;BME280;54536;50.090;14.420;2022-11-03T11:17:00;99497.41;;;14.79;51.50
67740;BME280;54536;50.090;14.420;2022-11-03T11:19:28;99490.63;;;14.84;51.89
67740;BME280;54536;50.090;14.420;2022-11-03T11:24:59;99476.59;;;14.92;51.65
67740;BME280;54536;50.090;14.420;2022-11-03T11:30:00;99462.72;;;15.06;52.22
67740;BME280;54536;50.090;14.420;2022-11-03T11:35:10;99452.91;;;14.82;52.52
67740;BME280;54536;50.090;14.420;2022-11-03T11:37:42;99452.25;;;14.88;52.96
67740;BME280;54536;50.090;14.420;2022-11-03T11:40:13;99447.47;;;15.00;53.32
67740;BME280;54536;50.090;14.420;2022-11-03T11:48:31;99431.75;;;15.07;53.86
67740;BME280;54536;50.090;14.420;2022-11-03T11:50:58;99424.78;;;15.14;53.59
67740;BME280;54536;50.090;14.420;2022-11-03T11:53:26;99418.69;;;15.05;53.55
67740;BME280;54536;50.090;14.420;2022-11-03T11:55:55;99406.09;;;15.15;54.26
67740;BME280;54536;50.090;14.420;2022-11-03T12:03:54;99388.06;;;15.11;54.81
67740;BME280;54536;50.090;14.420;2022-11-03T12:06:35;99380.28;;;15.09;54.92
67740;BME280;54536;50.090;14.420;2022-11-03T12:14:39;99363.41;;;15.02;54.59
67740;BME280;54536;50.090;14.420;2022-11-03T12:25:34;99334.41;;;15.17;54.78
67740;BME280;54536;50.090;14.420;2022-11-03T12:28:01;99336.41;;;15.15;55.39
67740;BME280;54536;50.090;14.420;2022-11-03T12:30:32;99325.31;;;15.19;54.94
67740;BME280;54536;50.090;14.420;2022-11-03T12:32:58;99316.88;;;15.24;54.87
67740;BME280;54536;50.090;14.420;2022-11-03T12:35:25;99317.22;;;15.21;55.00
67740;BME280;54536;50.090;14.420;2022-11-03T12:37:59;99308.09;;;15.15;55.33
67740;BME280;54536;50.090;14.420;2022-11-03T12:40:26;99304.78;;;15.21;55.29
67740;BME280;54536;50.090;14.420;2022-11-03T12:42:52;99307.28;;;15.15;55.12
67740;BME280;54536;50.090;14.420;2022-11-03T12:45:18;99296.03;;;15.05;55.52
67740;BME280;54536;50.090;14.420;2022-11-03T12:47:44;99292.53;;;15.12;55.72
67740;BME280;54536;50.090;14.420;2022-11-03T12:50:10;99295.72;;;15.08;54.46
67740;BME280;54536;50.090;14.420;2022-11-03T12:52:36;99283.25;;;15.25;54.38
67740;BME280;54536;50.090;14.420;2022-11-03T12:55:02;99294.19;;;15.21;54.55
67740;BME280;54536;50.090;14.420;2022-11-03T12:57:28;99297.84;;;15.20;54.29
67740;BME280;54536;50.090;14.420;2022-11-03T13:00:00;99297.34;;;15.25;54.92
67740;BME280;54536;50.090;14.420;2022-11-03T13:02:26;99288.56;;;15.25;54.56
67740;BME280;54536;50.090;14.420;2022-11-03T13:04:53;99286.91;;;15.15;54.41
67740;BME280;54536;50.090;14.420;2022-11-03T13:07:19;99280.81;;;15.15;54.54
67740;BME280;54536;50.090;14.420;2022-11-03T13:09:45;99279.13;;;15.14;54.48
67740;BME280;54536;50.090;14.420;2022-11-03T13:12:11;99281.78;;;15.22;54.60
67740;BME280;54536;50.090;14.420;2022-11-03T13:15:06;99277.66;;;15.11;54.16
67740;BME280;54536;50.090;14.420;2022-11-03T13:17:32;99275.31;;;15.16;54.37
67740;BME280;54536;50.090;14.420;2022-11-03T13:19:59;99272.19;;;15.13;54.25
67740;BME280;54536;50.090;14.420;2022-11-03T13:22:25;99264.72;;;15.16;54.86
67740;BME280;54536;50.090;14.420;2022-11-03T13:24:51;99262.22;;;15.23;54.98
67740;BME280;54536;50.090;14.420;2022-11-03T13:27:17;99261.06;;;15.26;54.78
67740;BME280;54536;50.090;14.420;2022-11-03T13:29:43;99251.28;;;15.26;54.82
67740;BME280;54536;50.090;14.420;2022-11-03T13:32:09;99246.66;;;15.20;54.87
67740;BME280;54536;50.090;14.420;2022-11-03T13:34:35;99242.53;;;15.26;54.63
67740;BME280;54536;50.090;14.420;2022-11-03T13:37:01;99236.25;;;15.18;55.20
67740;BME280;54536;50.090;14.420;2022-11-03T13:39:30;99228.78;;;15.22;54.50
67740;BME280;54536;50.090;14.420;2022-11-03T13:42:01;99231.13;;;15.17;55.16
67740;BME280;54536;50.090;14.420;2022-11-03T13:44:28;99231.25;;;15.23;54.44
67740;BME280;54536;50.090;14.420;2022-11-03T13:46:54;99228.97;;;15.20;54.37
67740;BME280;54536;50.090;14.420;2022-11-03T13:49:20;99220.03;;;15.21;54.89
67740;BME280;54536;50.090;14.420;2022-11-03T13:51:47;99227.63;;;15.25;54.52
67740;BME280;54536;50.090;14.420;2022-11-03T13:54:14;99218.16;;;15.30;54.82
67740;BME280;54536;50.090;14.420;2022-11-03T13:56:41;99220.16;;;15.28;54.79
67740;BME280;54536;50.090;14.420;2022-11-03T13:59:07;99216.03;;;15.26;54.92
67740;BME280;54536;50.090;14.420;2022-11-03T14:01:34;99202.44;;;15.29;54.69
67740;BME280;54536;50.090;14.420;2022-11-03T14:04:01;99200.31;;;15.24;54.79
67740;BME280;54536;50.090;14.420;2022-11-03T14:06:27;99193.84;;;15.27;55.31
67740;BME280;54536;50.090;14.420;2022-11-03T14:08:53;99194.97;;;15.32;55.77
67740;BME280;54536;50.090;14.420;2022-11-03T14:11:28;99196.94;;;15.38;56.99
67740;BME280;54536;50.090;14.420;2022-11-03T14:14:13;99187.00;;;15.40;54.80
67740;BME280;54536;50.090;14.420;2022-11-03T14:16:39;99185.69;;;15.36;54.83
67740;BME280;54536;50.090;14.420;2022-11-03T14:19:12;99184.72;;;15.37;55.25
67740;BME280;54536;50.090;14.420;2022-11-03T14:24:19;99170.78;;;15.43;54.66
67740;BME280;54536;50.090;14.420;2022-11-03T14:26:45;99168.94;;;15.44;54.85
67740;BME280;54536;50.090;14.420;2022-11-03T14:29:11;99169.41;;;15.48;54.81
67740;BME280;54536;50.090;14.420;2022-11-03T14:31:37;99164.75;;;15.50;55.34